createdAt,value
2017-09-05T00:02:11.045Z,13.56
2017-09-05T00:04:39.126Z,13.54
2017-09-05T00:07:07.037Z,13.48
2017-09-05T00:12:49.504Z,13.33
2017-09-05T00:15:17.851Z,13.34
2017-09-05T00:20:52.432Z,13.33
2017-09-05T00:23:20.341Z,13.38
2017-09-05T00:25:48.311Z,13.34
2017-09-05T00:28:16.219Z,13.38
2017-09-05T00:30:44.315Z,13.40
2017-09-05T00:33:12.272Z,13.31
2017-09-05T00:35:40.168Z,13.28
2017-09-05T00:38:08.112Z,13.26
2017-09-05T00:40:36.033Z,13.26
2017-09-05T00:43:03.951Z,13.22
2017-09-05T00:45:31.888Z,13.23
2017-09-05T00:47:59.789Z,13.20
2017-09-05T00:50:27.685Z,13.11
2017-09-05T00:52:55.636Z,13.09
2017-09-05T00:55:23.551Z,13.15
2017-09-05T00:57:51.471Z,13.13
2017-09-05T01:00:19.422Z,13.11
2017-09-05T01:02:47.389Z,13.17
2017-09-05T01:05:15.359Z,13.10
2017-09-05T01:07:43.314Z,13.05
2017-09-05T01:10:11.291Z,13.06
2017-09-05T01:12:39.421Z,13.03
2017-09-05T01:15:07.335Z,12.99
2017-09-05T01:17:35.409Z,12.95
2017-09-05T01:20:03.436Z,12.86
2017-09-05T01:22:31.446Z,12.85
2017-09-05T01:24:59.356Z,12.86
2017-09-05T01:27:27.309Z,12.85
2017-09-05T01:29:55.252Z,12.88
2017-09-05T01:32:23.202Z,12.87
2017-09-05T01:34:51.129Z,12.84
2017-09-05T01:37:19.108Z,12.84
2017-09-05T01:39:47.018Z,12.81
2017-09-05T01:42:14.934Z,12.79
2017-09-05T01:44:42.839Z,12.79
2017-09-05T01:47:10.750Z,12.74
2017-09-05T01:49:38.650Z,12.69
2017-09-05T01:52:06.646Z,12.67
2017-09-05T01:54:34.621Z,12.66
2017-09-05T01:57:02.587Z,12.70
2017-09-05T01:59:30.561Z,12.69
2017-09-05T02:01:58.987Z,12.73
2017-09-05T02:04:26.892Z,12.65
2017-09-05T02:06:54.833Z,12.66
2017-09-05T02:09:22.729Z,12.61
2017-09-05T02:11:50.719Z,12.62
2017-09-05T02:14:18.686Z,12.55
2017-09-05T02:16:46.647Z,12.56
2017-09-05T02:19:14.613Z,12.48
2017-09-05T02:21:42.525Z,12.49
2017-09-05T02:24:10.452Z,12.53
2017-09-05T02:26:38.380Z,12.51
2017-09-05T02:31:40.624Z,12.44
2017-09-05T02:34:08.525Z,12.50
2017-09-05T02:36:36.450Z,12.44
2017-09-05T02:39:04.376Z,12.46
2017-09-05T02:41:32.276Z,12.49
2017-09-05T02:44:00.234Z,12.58
2017-09-05T02:46:28.203Z,12.49
2017-09-05T02:48:56.113Z,12.46
2017-09-05T02:51:24.138Z,12.45
2017-09-05T02:53:52.049Z,12.45
2017-09-05T02:56:19.996Z,12.41
2017-09-05T02:58:47.960Z,12.39
2017-09-05T03:01:15.859Z,12.35
2017-09-05T03:03:43.795Z,12.42
2017-09-05T03:06:11.764Z,12.36
2017-09-05T03:08:39.723Z,12.32
2017-09-05T03:11:07.634Z,12.35
2017-09-05T03:13:35.540Z,12.18
2017-09-05T03:16:03.536Z,12.17
2017-09-05T03:18:31.492Z,12.23
2017-09-05T03:21:00.204Z,12.30
2017-09-05T03:23:28.097Z,12.29
2017-09-05T03:25:56.079Z,12.20
2017-09-05T03:28:24.094Z,12.16
2017-09-05T03:30:51.990Z,12.24
2017-09-05T03:33:19.939Z,12.15
2017-09-05T03:35:47.994Z,12.16
2017-09-05T03:38:15.961Z,12.17
2017-09-05T03:40:43.875Z,12.12
2017-09-05T03:43:11.800Z,12.05
2017-09-05T03:45:39.772Z,11.96
2017-09-05T03:48:07.686Z,12.06
2017-09-05T03:50:35.590Z,12.00
2017-09-05T03:53:03.524Z,11.91
2017-09-05T03:55:31.431Z,11.89
2017-09-05T03:57:59.362Z,11.90
2017-09-05T04:00:27.376Z,11.95
2017-09-05T04:02:55.280Z,12.04
2017-09-05T04:05:23.188Z,11.88
2017-09-05T04:07:51.180Z,11.97
2017-09-05T04:10:19.103Z,11.93
2017-09-05T04:12:47.024Z,11.90
2017-09-05T04:15:14.949Z,11.90
2017-09-05T04:17:42.960Z,11.91
2017-09-05T04:20:10.867Z,11.78
2017-09-05T04:22:38.758Z,11.88
2017-09-05T04:25:06.759Z,11.78
2017-09-05T04:27:34.720Z,11.77
2017-09-05T04:30:02.625Z,11.72
2017-09-05T04:32:30.564Z,11.73
2017-09-05T04:34:58.526Z,11.80
2017-09-05T04:37:26.443Z,11.84
2017-09-05T04:39:54.353Z,11.92
2017-09-05T04:42:22.261Z,11.97
2017-09-05T04:44:50.192Z,11.98
2017-09-05T04:47:18.160Z,12.08
2017-09-05T04:49:46.066Z,12.09
2017-09-05T04:52:13.990Z,12.21
2017-09-05T04:54:42.061Z,12.32
2017-09-05T04:57:10.046Z,12.46
2017-09-05T04:59:37.954Z,12.58
2017-09-05T05:02:05.890Z,13.15
2017-09-05T05:04:33.804Z,13.87
2017-09-05T05:07:01.729Z,14.67
2017-09-05T05:09:29.640Z,15.35
2017-09-05T05:11:57.548Z,15.97
2017-09-05T05:14:25.798Z,16.71
2017-09-05T05:16:53.695Z,17.08
2017-09-05T05:19:21.671Z,17.69
2017-09-05T05:21:49.618Z,18.37
2017-09-05T05:24:17.561Z,19.00
2017-09-05T05:26:45.483Z,19.35
2017-09-05T05:29:13.391Z,19.86
2017-09-05T05:31:41.335Z,20.51
2017-09-05T05:34:09.373Z,20.95
2017-09-05T05:36:37.266Z,21.71
2017-09-05T05:39:05.186Z,22.08
2017-09-05T05:41:33.171Z,22.57
2017-09-05T05:44:01.084Z,22.93
2017-09-05T05:46:29.065Z,23.63
2017-09-05T05:48:57.033Z,23.87
2017-09-05T05:51:25.043Z,24.10
2017-09-05T05:53:52.944Z,24.85
2017-09-05T05:56:20.851Z,25.33
2017-09-05T05:58:48.847Z,25.62
2017-09-05T06:01:16.760Z,25.18
2017-09-05T06:03:44.654Z,26.02
2017-09-05T06:06:12.608Z,26.01
2017-09-05T06:08:40.514Z,25.84
2017-09-05T06:11:08.443Z,25.90
2017-09-05T06:13:36.459Z,26.72
2017-09-05T06:16:05.126Z,26.66
2017-09-05T06:18:33.067Z,26.63
2017-09-05T06:21:01.077Z,26.85
2017-09-05T06:23:28.985Z,27.66
2017-09-05T06:25:56.900Z,27.69
2017-09-05T06:28:24.794Z,27.74
2017-09-05T06:30:52.694Z,28.00
2017-09-05T06:33:20.624Z,27.90
2017-09-05T06:35:48.544Z,27.64
2017-09-05T06:38:16.553Z,28.12
2017-09-05T06:40:44.525Z,28.65
2017-09-05T06:43:12.436Z,28.65
2017-09-05T06:45:40.347Z,28.29
2017-09-05T06:48:08.320Z,28.48
2017-09-05T06:50:36.278Z,28.56
2017-09-05T06:53:04.842Z,29.86
2017-09-05T06:55:32.952Z,30.38
2017-09-05T06:58:00.856Z,30.17
2017-09-05T07:00:28.846Z,30.47
2017-09-05T07:02:56.885Z,31.24
2017-09-05T07:05:24.769Z,31.08
2017-09-05T07:07:52.691Z,31.76
2017-09-05T07:10:20.655Z,33.01
2017-09-05T07:12:48.581Z,32.87
2017-09-05T07:15:16.503Z,33.20
2017-09-05T07:17:44.548Z,32.26
2017-09-05T07:20:12.473Z,31.69
2017-09-05T07:22:40.385Z,31.52
2017-09-05T07:25:08.316Z,31.99
2017-09-05T07:27:36.238Z,32.47
2017-09-05T07:30:04.195Z,32.79
2017-09-05T07:32:32.112Z,33.37
2017-09-05T07:35:00.063Z,32.43
2017-09-05T07:37:28.009Z,32.34
2017-09-05T07:39:55.924Z,32.64
2017-09-05T07:42:23.828Z,31.57
2017-09-05T07:44:51.869Z,31.47
2017-09-05T07:47:19.784Z,31.37
2017-09-05T07:49:47.704Z,31.93
2017-09-05T07:52:15.703Z,32.03
2017-09-05T07:54:43.695Z,32.16
2017-09-05T07:57:11.625Z,31.77
2017-09-05T07:59:39.550Z,31.47
2017-09-05T08:02:07.456Z,31.57
2017-09-05T08:04:35.372Z,32.50
2017-09-05T08:07:03.284Z,32.31
2017-09-05T08:09:31.287Z,31.62
2017-09-05T08:11:59.269Z,31.26
2017-09-05T08:14:27.241Z,31.08
2017-09-05T08:16:55.167Z,30.18
2017-09-05T08:19:23.169Z,30.26
2017-09-05T08:21:51.093Z,30.50
2017-09-05T08:24:19.047Z,30.62
2017-09-05T08:26:46.963Z,30.63
2017-09-05T08:29:14.897Z,31.16
2017-09-05T08:31:42.864Z,30.54
2017-09-05T08:34:10.767Z,30.21
2017-09-05T08:36:38.843Z,29.83
2017-09-05T08:39:06.811Z,29.30
2017-09-05T08:41:34.893Z,29.98
2017-09-05T08:44:02.792Z,30.34
2017-09-05T08:49:22.310Z,31.06
2017-09-05T08:51:50.221Z,30.36
2017-09-05T08:54:18.296Z,30.67
2017-09-05T08:56:46.206Z,31.39
2017-09-05T08:59:14.133Z,32.09
2017-09-05T09:01:42.069Z,31.06
2017-09-05T09:04:09.969Z,31.15
2017-09-05T09:06:37.931Z,31.30
2017-09-05T09:09:05.884Z,30.93
2017-09-05T09:11:33.812Z,31.92
2017-09-05T09:14:01.760Z,32.50
2017-09-05T09:16:29.681Z,32.49
2017-09-05T09:18:57.655Z,32.49
2017-09-05T09:21:25.566Z,32.55
2017-09-05T09:23:53.472Z,33.05
2017-09-05T09:26:21.404Z,33.26
2017-09-05T09:28:49.332Z,33.11
2017-09-05T09:31:17.247Z,32.88
2017-09-05T09:33:45.266Z,33.29
2017-09-05T09:36:13.168Z,33.15
2017-09-05T09:38:41.075Z,32.52
2017-09-05T09:41:08.992Z,32.85
2017-09-05T09:43:37.035Z,33.39
2017-09-05T09:46:04.964Z,33.25
2017-09-05T09:48:32.976Z,32.62
2017-09-05T09:51:00.879Z,32.68
2017-09-05T09:53:28.803Z,33.13
2017-09-05T09:55:56.713Z,32.92
2017-09-05T09:58:24.611Z,32.82
2017-09-05T10:00:52.518Z,33.44
2017-09-05T10:03:20.423Z,33.43
2017-09-05T10:05:48.361Z,33.81
2017-09-05T10:08:16.312Z,33.26
2017-09-05T10:10:44.220Z,33.51
2017-09-05T10:13:12.216Z,33.34
2017-09-05T10:15:40.137Z,32.89
2017-09-05T10:18:08.033Z,31.24
2017-09-05T10:20:35.936Z,31.25
2017-09-05T10:23:03.941Z,31.18
2017-09-05T10:25:31.850Z,30.22
2017-09-05T10:27:59.751Z,29.40
2017-09-05T10:30:27.671Z,28.75
2017-09-05T10:32:55.579Z,28.33
2017-09-05T10:35:23.572Z,28.87
2017-09-05T10:37:51.463Z,29.73
2017-09-05T10:40:19.383Z,29.31
2017-09-05T10:42:47.351Z,29.00
2017-09-05T10:45:15.254Z,29.41
2017-09-05T10:47:43.200Z,29.40
2017-09-05T10:50:11.112Z,29.28
2017-09-05T10:52:39.020Z,29.12
2017-09-05T10:55:06.939Z,29.29
2017-09-05T10:57:34.972Z,28.62
2017-09-05T11:00:02.872Z,28.66
2017-09-05T11:02:30.780Z,28.76
2017-09-05T11:04:58.690Z,28.36
2017-09-05T11:07:26.645Z,28.49
2017-09-05T11:09:54.604Z,28.29
2017-09-05T11:12:22.533Z,28.25
2017-09-05T11:14:50.436Z,28.49
2017-09-05T11:17:18.360Z,27.87
2017-09-05T11:19:46.255Z,27.35
2017-09-05T11:22:14.170Z,27.08
2017-09-05T11:24:42.083Z,26.61
2017-09-05T11:27:10.073Z,26.20
2017-09-05T11:29:38.928Z,25.51
2017-09-05T11:32:06.831Z,25.13
2017-09-05T11:34:34.746Z,24.74
2017-09-05T11:37:02.668Z,24.35
2017-09-05T11:39:30.652Z,24.35
2017-09-05T11:41:58.569Z,24.45
2017-09-05T11:44:26.584Z,24.32
2017-09-05T11:46:54.489Z,24.12
2017-09-05T11:49:22.606Z,24.10
2017-09-05T11:51:50.614Z,24.19
2017-09-05T11:54:18.560Z,24.02
2017-09-05T11:56:46.513Z,24.03
2017-09-05T11:59:14.451Z,24.06
2017-09-05T12:01:42.467Z,23.80
2017-09-05T12:04:10.362Z,23.81
2017-09-05T12:06:38.272Z,23.68
2017-09-05T12:09:06.263Z,23.61
2017-09-05T12:11:34.240Z,23.61
2017-09-05T12:14:02.165Z,23.71
2017-09-05T12:16:30.202Z,23.89
2017-09-05T12:18:58.127Z,23.84
2017-09-05T12:21:26.087Z,23.76
2017-09-05T12:23:53.997Z,23.85
2017-09-05T12:26:21.946Z,23.88
2017-09-05T12:28:50.002Z,23.80
2017-09-05T12:31:18.041Z,23.79
2017-09-05T12:33:45.963Z,23.80
2017-09-05T12:36:13.857Z,23.72
2017-09-05T12:38:44.025Z,23.65
2017-09-05T12:41:15.545Z,23.62
2017-09-05T12:43:48.477Z,23.58
2017-09-05T12:46:20.359Z,23.63
2017-09-05T12:48:48.276Z,23.70
2017-09-05T12:51:16.189Z,23.72
2017-09-05T12:53:44.120Z,23.67
2017-09-05T12:56:12.058Z,23.63
2017-09-05T12:58:39.978Z,23.63
2017-09-05T13:01:07.874Z,23.75
2017-09-05T13:03:35.793Z,23.91
2017-09-05T13:06:03.893Z,23.81
2017-09-05T13:08:31.850Z,23.97
2017-09-05T13:10:59.814Z,23.59
2017-09-05T13:13:27.736Z,23.64
2017-09-05T13:15:55.641Z,23.68
2017-09-05T13:18:23.564Z,23.74
2017-09-05T13:20:51.459Z,23.75
2017-09-05T13:23:19.447Z,23.85
2017-09-05T13:25:47.423Z,23.78
2017-09-05T13:28:15.327Z,23.78
2017-09-05T13:30:43.262Z,23.73
2017-09-05T13:33:11.234Z,23.72
2017-09-05T13:35:39.205Z,23.66
2017-09-05T13:38:07.193Z,23.84
2017-09-05T13:40:35.106Z,23.85
2017-09-05T13:43:03.021Z,23.63
2017-09-05T13:45:31.070Z,23.50
2017-09-05T13:47:58.972Z,23.53
2017-09-05T13:50:26.912Z,23.61
2017-09-05T13:52:54.837Z,23.71
2017-09-05T13:55:22.853Z,23.69
2017-09-05T13:57:50.861Z,23.73
2017-09-05T14:00:22.155Z,23.76
2017-09-05T14:02:50.127Z,23.56
2017-09-05T14:05:18.094Z,23.53
2017-09-05T14:07:45.999Z,23.52
2017-09-05T14:10:13.912Z,23.52
2017-09-05T14:12:41.817Z,23.45
2017-09-05T14:15:09.726Z,23.44
2017-09-05T14:17:37.698Z,23.50
2017-09-05T14:20:05.611Z,23.55
2017-09-05T14:22:33.519Z,23.60
2017-09-05T14:25:01.498Z,23.62
2017-09-05T14:27:29.403Z,23.73
2017-09-05T14:29:57.303Z,23.66
2017-09-05T14:32:25.232Z,23.55
2017-09-05T14:34:53.131Z,23.65
2017-09-05T14:37:21.070Z,23.58
2017-09-05T14:39:48.995Z,23.59
2017-09-05T14:42:16.912Z,23.50
2017-09-05T14:44:44.822Z,23.54
2017-09-05T14:47:12.768Z,23.66
2017-09-05T14:49:40.676Z,23.60
2017-09-05T14:52:08.688Z,23.64
2017-09-05T14:54:36.642Z,23.44
2017-09-05T14:57:04.627Z,23.48
2017-09-05T14:59:32.533Z,23.47
2017-09-05T15:02:00.466Z,23.39
2017-09-05T15:04:28.361Z,23.39
2017-09-05T15:06:56.274Z,23.36
2017-09-05T15:09:24.268Z,23.25
2017-09-05T15:11:52.222Z,23.29
2017-09-05T15:14:20.196Z,23.25
2017-09-05T15:16:48.184Z,23.27
2017-09-05T15:19:16.131Z,23.18
2017-09-05T15:21:44.056Z,23.31
2017-09-05T15:24:11.966Z,23.23
2017-09-05T15:26:39.858Z,23.26
2017-09-05T15:29:07.816Z,23.27
2017-09-05T15:31:35.721Z,23.25
2017-09-05T15:34:03.623Z,23.25
2017-09-05T15:36:31.624Z,23.34
2017-09-05T15:38:59.550Z,23.31
2017-09-05T15:41:27.536Z,23.25
2017-09-05T15:43:55.455Z,23.31
2017-09-05T15:46:23.384Z,23.30
2017-09-05T15:48:51.291Z,23.25
2017-09-05T15:51:19.225Z,23.29
2017-09-05T15:53:47.129Z,23.23
2017-09-05T15:56:15.146Z,23.17
2017-09-05T15:58:43.060Z,23.09
2017-09-05T16:01:11.054Z,23.08
2017-09-05T16:03:38.979Z,22.85
2017-09-05T16:06:07.035Z,22.84
2017-09-05T16:08:34.961Z,22.66
2017-09-05T16:11:02.988Z,22.64
2017-09-05T16:13:30.897Z,22.59
2017-09-05T16:15:58.914Z,22.44
2017-09-05T16:18:26.822Z,22.42
2017-09-05T16:20:54.759Z,22.38
2017-09-05T16:23:22.708Z,22.28
2017-09-05T16:25:50.599Z,22.22
2017-09-05T16:28:18.507Z,22.27
2017-09-05T16:30:46.442Z,22.21
2017-09-05T16:33:14.380Z,22.15
2017-09-05T16:35:42.351Z,22.13
2017-09-05T16:38:10.260Z,22.08
2017-09-05T16:40:38.189Z,21.84
2017-09-05T16:43:06.151Z,21.76
2017-09-05T16:45:34.084Z,21.60
2017-09-05T16:48:01.979Z,21.66
2017-09-05T16:50:29.915Z,21.67
2017-09-05T16:52:57.836Z,21.58
2017-09-05T16:55:25.827Z,21.51
2017-09-05T16:57:53.763Z,21.54
2017-09-05T17:00:21.712Z,21.48
2017-09-05T17:02:49.751Z,21.39
2017-09-05T17:05:17.653Z,21.25
2017-09-05T17:07:45.565Z,21.25
2017-09-05T17:10:13.615Z,21.28
2017-09-05T17:12:41.606Z,21.31
2017-09-05T17:15:09.528Z,21.20
2017-09-05T17:17:37.481Z,21.21
2017-09-05T17:20:05.375Z,21.12
2017-09-05T17:22:33.330Z,21.02
2017-09-05T17:25:01.444Z,21.04
2017-09-05T17:27:29.330Z,20.93
2017-09-05T17:29:57.263Z,20.88
2017-09-05T17:32:25.175Z,20.72
2017-09-05T17:34:53.075Z,20.66
2017-09-05T17:37:20.993Z,20.69
2017-09-05T17:39:49.091Z,20.59
2017-09-05T17:42:17.007Z,20.64
2017-09-05T17:44:44.924Z,20.63
2017-09-05T17:47:12.937Z,20.44
2017-09-05T17:49:40.849Z,20.46
2017-09-05T17:52:08.771Z,20.39
2017-09-05T17:54:36.698Z,20.40
2017-09-05T17:57:04.596Z,20.40
2017-09-05T17:59:32.495Z,20.22
2017-09-05T18:02:00.398Z,20.28
2017-09-05T18:04:28.302Z,20.20
2017-09-05T18:06:56.268Z,20.13
2017-09-05T18:09:24.254Z,20.16
2017-09-05T18:11:52.201Z,20.11
2017-09-05T18:14:20.177Z,20.03
2017-09-05T18:16:48.130Z,20.08
2017-09-05T18:19:16.043Z,20.07
2017-09-05T18:21:44.097Z,20.09
2017-09-05T18:24:12.143Z,20.07
2017-09-05T18:26:40.186Z,20.06
2017-09-05T18:29:08.092Z,20.03
2017-09-05T18:31:36.012Z,20.09
2017-09-05T18:34:03.948Z,20.09
2017-09-05T18:36:31.852Z,20.14
2017-09-05T18:38:59.747Z,20.14
2017-09-05T18:41:27.651Z,20.23
2017-09-05T18:43:55.564Z,20.12
2017-09-05T18:46:23.505Z,20.01
2017-09-05T18:48:51.406Z,19.94
2017-09-05T18:51:19.303Z,19.91
2017-09-05T18:53:47.274Z,19.77
2017-09-05T18:56:15.187Z,19.74
2017-09-05T18:58:43.101Z,19.82
2017-09-05T19:01:11.074Z,19.80
2017-09-05T19:03:39.113Z,19.73
2017-09-05T19:06:07.241Z,19.76
2017-09-05T19:08:35.188Z,19.65
2017-09-05T19:11:03.223Z,19.54
2017-09-05T19:13:31.229Z,19.53
2017-09-05T19:15:59.132Z,19.60
2017-09-05T19:18:27.045Z,19.70
2017-09-05T19:20:54.989Z,19.72
2017-09-05T19:23:22.889Z,19.68
2017-09-05T19:25:50.813Z,19.69
2017-09-05T19:28:18.770Z,19.79
2017-09-05T19:30:46.679Z,19.72
2017-09-05T19:33:14.593Z,19.73
2017-09-05T19:35:42.524Z,19.74
2017-09-05T19:38:10.505Z,19.71
2017-09-05T19:40:38.476Z,19.68
2017-09-05T19:43:06.431Z,19.69
2017-09-05T19:45:34.404Z,19.68
2017-09-05T19:48:02.325Z,19.74
2017-09-05T19:50:30.240Z,19.76
2017-09-05T19:52:58.284Z,19.79
2017-09-05T19:55:26.330Z,19.76
2017-09-05T19:57:54.234Z,19.67
2017-09-05T20:00:22.272Z,19.67
2017-09-05T20:02:50.327Z,19.66
2017-09-05T20:05:18.250Z,19.61
2017-09-05T20:07:46.220Z,19.60
2017-09-05T20:10:14.300Z,19.64
2017-09-05T20:12:42.199Z,19.59
2017-09-05T20:15:10.137Z,19.48
2017-09-05T20:17:38.038Z,19.46
2017-09-05T20:20:05.943Z,19.46
2017-09-05T20:22:33.883Z,19.56
2017-09-05T20:25:01.795Z,19.69
2017-09-05T20:27:29.842Z,19.58
2017-09-05T20:29:57.782Z,19.64
2017-09-05T20:32:25.719Z,19.66
2017-09-05T20:34:53.688Z,19.60
2017-09-05T20:37:21.599Z,19.56
2017-09-05T20:39:49.603Z,19.49
2017-09-05T20:42:17.539Z,19.37
2017-09-05T20:44:45.445Z,19.28
2017-09-05T20:47:13.364Z,19.24
2017-09-05T20:49:41.271Z,19.22
2017-09-05T20:52:09.171Z,19.26
2017-09-05T20:54:37.108Z,19.27
2017-09-05T20:57:05.008Z,19.25
2017-09-05T20:59:32.899Z,19.22
2017-09-05T21:02:01.236Z,19.12
2017-09-05T21:04:29.134Z,19.21
2017-09-05T21:06:57.156Z,19.19
2017-09-05T21:09:25.069Z,19.22
2017-09-05T21:11:52.986Z,19.26
2017-09-05T21:14:20.903Z,19.24
2017-09-05T21:16:48.934Z,19.19
2017-09-05T21:19:16.903Z,19.22
2017-09-05T21:21:44.820Z,19.28
2017-09-05T21:24:12.742Z,19.29
2017-09-05T21:26:40.673Z,19.25
2017-09-05T21:29:08.684Z,19.16
2017-09-05T21:31:36.580Z,19.18
2017-09-05T21:34:04.503Z,19.02
2017-09-05T21:36:32.481Z,18.89
2017-09-05T21:39:00.387Z,18.83
2017-09-05T21:41:28.287Z,18.91
2017-09-05T21:43:56.248Z,18.84
2017-09-05T21:46:24.268Z,18.82
2017-09-05T21:48:52.183Z,18.73
2017-09-05T21:51:20.198Z,18.61
2017-09-05T21:53:48.116Z,18.53
2017-09-05T21:56:16.146Z,18.43
2017-09-05T21:58:44.072Z,18.36
2017-09-05T22:01:12.083Z,18.33
2017-09-05T22:03:39.992Z,18.28
2017-09-05T22:06:08.004Z,18.20
2017-09-05T22:08:35.912Z,18.19
2017-09-05T22:11:03.836Z,18.12
2017-09-05T22:13:31.745Z,18.08
2017-09-05T22:15:59.668Z,18.00
2017-09-05T22:18:33.161Z,17.93
2017-09-05T22:21:06.611Z,17.73
2017-09-05T22:23:34.526Z,17.71
2017-09-05T22:26:08.205Z,17.72
2017-09-05T22:28:41.576Z,17.72
2017-09-05T22:31:09.511Z,17.62
2017-09-05T22:33:37.479Z,17.57
2017-09-05T22:36:05.423Z,17.56
2017-09-05T22:38:33.352Z,17.47
2017-09-05T22:41:01.276Z,17.46
2017-09-05T22:43:29.195Z,17.41
2017-09-05T22:45:57.105Z,17.33
2017-09-05T22:48:25.012Z,17.26
2017-09-05T22:50:52.949Z,17.23
2017-09-05T22:53:20.865Z,17.22
2017-09-05T22:55:48.796Z,17.20
2017-09-05T22:58:16.702Z,17.12
2017-09-05T23:00:44.771Z,17.14
2017-09-05T23:03:12.684Z,17.14
2017-09-05T23:05:40.813Z,17.07
2017-09-05T23:08:08.745Z,17.02
2017-09-05T23:10:36.673Z,17.04
2017-09-05T23:13:04.664Z,17.09
2017-09-05T23:15:32.596Z,17.14
2017-09-05T23:18:00.552Z,17.10
2017-09-05T23:20:28.609Z,17.15
2017-09-05T23:22:56.538Z,17.18
2017-09-05T23:25:24.469Z,17.05
2017-09-05T23:27:52.468Z,17.02
2017-09-05T23:30:20.380Z,17.03
2017-09-05T23:32:48.299Z,17.10
2017-09-05T23:35:16.258Z,17.06
2017-09-05T23:37:44.163Z,16.97
2017-09-05T23:40:12.105Z,16.97
2017-09-05T23:42:40.032Z,16.88
2017-09-05T23:45:07.940Z,16.88
2017-09-05T23:47:35.847Z,16.87
2017-09-05T23:50:03.884Z,16.82
2017-09-05T23:52:31.877Z,16.80
2017-09-05T23:54:59.811Z,16.82
2017-09-05T23:57:27.845Z,16.82
2017-09-05T23:59:55.746Z,16.87
